Time;durP1;ratioP1;P1;durP2;ratioP2;P2;SDS_P1;SDS_P2;PMS_P1;PMS_P2;Temp;Humidity;BMP_temperature;BMP_pressure;BME280_temperature;BME280_humidity;BME280_pressure;Samples;Min_cycle;Max_cycle;Signal;HPM_P1;HPM_P2
2022/06/28 04:01:36;;;;;;;10.53;9.43;;;16.60;99.90;;;;;;5430328;23;20564;-68
2022/06/28 04:04:03;;;;;;;9.93;9.10;;;16.70;99.90;;;;;;4975174;28;20840;-67
2022/06/28 04:06:30;;;;;;;9.40;8.50;;;16.80;99.90;;;;;;4975480;28;20459;-67
2022/06/28 04:08:56;;;;;;;9.87;8.87;;;16.80;99.90;;;;;;4974864;28;20478;-67
2022/06/28 04:11:23;;;;;;;9.10;8.30;;;16.90;99.90;;;;;;4974919;28;20487;-67
2022/06/28 04:13:52;;;;;;;8.07;7.47;;;17.00;99.90;;;;;;4975082;28;20975;-67
2022/06/28 04:16:20;;;;;;;7.67;7.17;;;17.10;99.90;;;;;;4975273;28;20483;-67
2022/06/28 04:18:48;;;;;;;9.97;7.73;;;17.10;99.90;;;;;;4975035;28;20957;-67
2022/06/28 04:21:17;;;;;;;7.73;7.17;;;17.20;99.90;;;;;;4974669;28;20855;-67
2022/06/28 04:23:44;;;;;;;8.50;7.90;;;17.30;99.90;;;;;;4974456;28;20944;-67
2022/06/28 04:26:11;;;;;;;8.27;7.57;;;17.30;99.90;;;;;;4975505;28;20487;-67
2022/06/28 04:28:38;;;;;;;8.23;7.60;;;17.30;99.90;;;;;;4975064;28;20487;-67
2022/06/28 04:31:06;;;;;;;8.13;7.53;;;17.30;99.90;;;;;;4974176;28;20575;-67
2022/06/28 04:33:34;;;;;;;10.43;8.20;;;17.30;99.90;;;;;;4970206;28;20507;-67
2022/06/28 04:36:03;;;;;;;9.40;8.53;;;17.30;99.90;;;;;;4960858;28;20571;-67
2022/06/28 04:38:29;;;;;;;8.43;7.73;;;17.30;99.90;;;;;;4955045;29;20468;-67
2022/06/28 04:40:56;;;;;;;8.33;7.63;;;17.30;99.90;;;;;;4955114;29;20661;-67
2022/06/28 04:43:23;;;;;;;8.10;7.50;;;17.30;99.90;;;;;;4955061;29;20475;-67
2022/06/28 04:45:50;;;;;;;8.97;8.07;;;17.40;99.90;;;;;;4954554;29;20991;-67
2022/06/28 04:48:17;;;;;;;8.50;7.70;;;17.50;99.90;;;;;;4955241;29;20556;-67
2022/06/28 04:50:43;;;;;;;9.00;8.10;;;17.70;99.90;;;;;;4954918;29;20610;-67
2022/06/28 04:53:11;;;;;;;8.80;8.20;;;17.80;99.90;;;;;;4954911;29;20468;-68
2022/06/28 04:55:38;;;;;;;9.50;8.67;;;17.90;99.90;;;;;;4954971;29;20464;-67
2022/06/28 04:58:05;;;;;;;9.80;8.90;;;18.00;99.90;;;;;;4954814;29;20511;-67
2022/06/28 05:00:32;;;;;;;10.00;9.23;;;18.00;99.90;;;;;;4954587;28;20499;-68
2022/06/28 05:02:58;;;;;;;9.70;8.83;;;18.10;99.90;;;;;;4954836;29;20790;-67
2022/06/28 05:05:25;;;;;;;10.60;9.80;;;18.20;99.90;;;;;;4955117;29;20472;-67
2022/06/28 05:07:52;;;;;;;9.60;8.87;;;18.30;99.90;;;;;;4953711;28;20814;-67
2022/06/28 05:10:20;;;;;;;9.30;8.60;;;18.40;99.90;;;;;;4954558;29;20465;-67
2022/06/28 05:12:46;;;;;;;10.20;9.40;;;18.60;99.90;;;;;;4954579;29;20471;-67
2022/06/28 05:15:13;;;;;;;9.90;9.20;;;18.90;99.90;;;;;;4954475;29;20471;-67
2022/06/28 05:17:41;;;;;;;10.00;9.20;;;19.20;99.90;;;;;;4954892;29;20492;-67
2022/06/28 05:20:09;;;;;;;9.47;8.67;;;19.50;99.90;;;;;;4954831;29;20465;-66
2022/06/28 05:22:35;;;;;;;9.47;8.77;;;19.70;99.90;;;;;;4956676;28;20472;-67
2022/06/28 05:25:03;;;;;;;9.70;8.90;;;19.70;99.90;;;;;;4973317;28;20828;-68
2022/06/28 05:27:31;;;;;;;12.73;9.00;;;19.60;99.90;;;;;;4973794;28;20464;-67
2022/06/28 05:29:58;;;;;;;10.77;9.80;;;19.50;99.90;;;;;;4973396;28;20842;-67
2022/06/28 05:32:25;;;;;;;11.83;10.83;;;19.40;99.90;;;;;;4973243;28;20490;-67
2022/06/28 05:34:51;;;;;;;11.00;10.10;;;19.30;99.90;;;;;;4973030;28;20483;-67
2022/06/28 05:37:18;;;;;;;10.77;9.80;;;19.30;99.90;;;;;;4972828;28;20483;-67
2022/06/28 05:39:45;;;;;;;12.47;11.27;;;19.50;99.90;;;;;;4973079;28;20987;-67
2022/06/28 05:42:12;;;;;;;12.13;11.03;;;19.70;99.90;;;;;;4973623;28;20491;-67
2022/06/28 05:44:40;;;;;;;11.70;10.70;;;20.30;99.90;;;;;;4973473;28;20558;-68
2022/06/28 05:47:07;;;;;;;10.93;10.13;;;20.90;99.90;;;;;;4973738;28;20464;-65
2022/06/28 05:49:34;;;;;;;12.93;11.13;;;21.00;99.90;;;;;;4973236;28;20856;-67
2022/06/28 05:52:00;;;;;;;11.30;10.40;;;21.00;99.90;;;;;;4973344;28;20483;-67
2022/06/28 05:54:27;;;;;;;10.70;10.00;;;21.20;99.90;;;;;;4972456;28;20475;-66
2022/06/28 05:56:54;;;;;;;10.70;9.70;;;21.80;99.90;;;;;;4973474;28;20488;-67
2022/06/28 05:59:21;;;;;;;9.13;8.40;;;22.50;99.90;;;;;;4972814;28;20467;-67
2022/06/28 06:01:49;;;;;;;10.80;10.00;;;23.20;99.90;;;;;;4973102;28;20591;-67
2022/06/28 06:04:15;;;;;;;10.03;9.40;;;23.40;99.90;;;;;;4973155;28;20468;-67
2022/06/28 06:06:42;;;;;;;11.03;10.00;;;23.50;99.90;;;;;;4972934;28;20948;-67
2022/06/28 06:09:09;;;;;;;9.17;8.57;;;23.90;99.90;;;;;;4972382;28;20490;-67
2022/06/28 06:11:36;;;;;;;10.00;9.30;;;24.60;99.90;;;;;;4971260;28;20492;-67
2022/06/28 06:14:03;;;;;;;10.47;9.70;;;24.80;99.90;;;;;;4953047;28;20457;-67
2022/06/28 06:16:29;;;;;;;10.03;9.37;;;25.30;99.90;;;;;;4953461;28;20484;-67
2022/06/28 06:18:57;;;;;;;9.17;8.70;;;25.10;99.90;;;;;;4953340;28;20476;-67
2022/06/28 06:21:24;;;;;;;9.70;9.10;;;24.70;99.90;;;;;;4953129;29;20487;-67
2022/06/28 06:23:51;;;;;;;8.17;7.70;;;24.40;99.90;;;;;;4952670;29;20471;-67
2022/06/28 06:26:18;;;;;;;8.23;7.87;;;23.70;99.90;;;;;;4953606;29;20468;-67
2022/06/28 06:28:44;;;;;;;8.30;7.80;;;23.20;99.90;;;;;;4953220;29;20560;-67
2022/06/28 06:31:12;;;;;;;10.07;9.47;;;22.70;99.90;;;;;;4952394;29;20496;-67
2022/06/28 06:33:39;;;;;;;9.30;8.53;;;22.20;99.90;;;;;;4953352;29;20471;-67
2022/06/28 06:36:07;;;;;;;8.17;7.47;;;21.80;99.90;;;;;;4952898;29;20471;-67
2022/06/28 06:38:34;;;;;;;8.67;8.17;;;21.60;99.90;;;;;;4952951;29;20575;-67
2022/06/28 06:41:01;;;;;;;9.40;8.83;;;21.40;99.90;;;;;;4953071;29;20484;-67
2022/06/28 06:43:27;;;;;;;8.97;8.47;;;21.20;99.90;;;;;;4953106;29;20539;-67
2022/06/28 06:45:54;;;;;;;9.17;8.50;;;20.80;99.90;;;;;;4952816;29;20476;-68
2022/06/28 06:48:21;;;;;;;8.90;8.20;;;20.50;99.90;;;;;;4953146;28;20503;-68
2022/06/28 06:50:49;;;;;;;8.23;7.53;;;20.40;99.90;;;;;;4952538;29;20488;-67
2022/06/28 06:53:19;;;;;;;9.10;8.30;;;20.40;99.90;;;;;;4952443;29;20765;-67
2022/06/28 06:55:45;;;;;;;8.53;8.03;;;20.30;99.90;;;;;;4952742;28;20918;-67
2022/06/28 06:58:13;;;;;;;8.10;7.40;;;20.20;99.90;;;;;;4952997;29;20493;-67
2022/06/28 07:00:40;;;;;;;7.30;6.60;;;20.50;99.90;;;;;;4952223;29;20590;-67
2022/06/28 07:03:06;;;;;;;7.07;6.60;;;21.00;99.90;;;;;;4966917;28;20490;-67
2022/06/28 07:05:33;;;;;;;7.63;7.03;;;21.90;99.90;;;;;;4972193;28;20543;-67
2022/06/28 07:08:00;;;;;;;6.47;6.13;;;22.60;99.90;;;;;;4971667;28;20963;-68
2022/06/28 07:10:28;;;;;;;7.00;6.60;;;22.70;99.90;;;;;;4971963;28;20471;-67
2022/06/28 07:12:55;;;;;;;6.90;6.50;;;22.60;99.90;;;;;;4971990;28;20464;-67
2022/06/28 07:15:21;;;;;;;7.80;7.30;;;22.40;99.90;;;;;;4971459;28;20904;-68
2022/06/28 07:17:48;;;;;;;7.20;6.90;;;22.10;99.90;;;;;;4971813;28;20492;-68
2022/06/28 07:20:15;;;;;;;5.90;5.53;;;21.90;99.90;;;;;;4971778;28;20578;-67
2022/06/28 07:22:41;;;;;;;7.13;6.73;;;21.70;99.90;;;;;;4971326;28;20490;-67
2022/06/28 07:25:09;;;;;;;6.50;6.20;;;21.50;99.90;;;;;;4971990;28;20471;-65
2022/06/28 07:27:37;;;;;;;6.43;6.13;;;21.10;99.90;;;;;;4972265;28;20467;-67
2022/06/28 07:30:04;;;;;;;7.67;7.07;;;21.00;99.90;;;;;;4970639;28;20468;-67
2022/06/28 07:32:31;;;;;;;5.53;5.10;;;21.90;99.90;;;;;;4972104;28;20874;-67
2022/06/28 07:34:58;;;;;;;4.90;4.70;;;23.20;99.90;;;;;;4971901;28;20471;-66
2022/06/28 07:37:24;;;;;;;5.20;4.83;;;24.60;99.90;;;;;;4971616;28;20949;-66
2022/06/28 07:39:51;;;;;;;4.57;4.37;;;25.10;99.90;;;;;;4971296;28;20494;-66
2022/06/28 07:42:18;;;;;;;3.43;3.37;;;24.70;99.90;;;;;;4971692;28;20489;-66
2022/06/28 07:44:46;;;;;;;4.30;4.20;;;23.70;99.90;;;;;;4971517;28;20464;-66
2022/06/28 07:47:12;;;;;;;4.70;4.50;;;23.10;99.90;;;;;;4972066;28;20464;-67
2022/06/28 07:52:36;;;;;;;4.30;4.03;;;22.30;99.90;;;;;;4957940;28;20482;-67
2022/06/28 07:55:05;;;;;;;3.83;3.73;;;22.00;99.90;;;;;;4972855;28;20649;-67
2022/06/28 07:57:32;;;;;;;3.70;3.57;;;21.70;99.90;;;;;;4971803;28;20495;-67
2022/06/28 08:00:00;;;;;;;3.00;2.90;;;22.50;99.90;;;;;;4970844;28;20474;-67
2022/06/28 08:02:28;;;;;;;2.97;2.90;;;23.70;99.90;;;;;;4971605;28;20497;-67
2022/06/28 08:04:54;;;;;;;2.87;2.77;;;24.60;99.90;;;;;;4971646;28;20493;-67
2022/06/28 08:07:21;;;;;;;2.70;2.60;;;25.30;99.90;;;;;;4971857;28;20477;-67
2022/06/28 08:09:48;;;;;;;2.80;2.60;;;25.00;99.90;;;;;;4970785;28;20463;-67
2022/06/28 08:12:15;;;;;;;3.53;3.43;;;24.30;99.90;;;;;;4971604;28;20485;-66
2022/06/28 08:14:42;;;;;;;3.40;3.40;;;23.50;99.90;;;;;;4971050;28;20469;-67
2022/06/28 08:17:10;;;;;;;3.80;3.57;;;23.20;99.90;;;;;;4971815;28;20492;-67
2022/06/28 08:19:37;;;;;;;2.83;2.73;;;23.40;99.90;;;;;;4971397;28;20559;-67
2022/06/28 08:22:04;;;;;;;3.30;3.10;;;23.80;99.90;;;;;;4971171;28;20494;-67
2022/06/28 08:24:31;;;;;;;3.07;2.87;;;24.60;99.90;;;;;;4969095;28;20474;-67
2022/06/28 08:26:58;;;;;;;2.40;2.40;;;25.50;99.90;;;;;;4971572;28;20528;-67
2022/06/28 08:29:25;;;;;;;2.77;2.47;;;26.10;99.90;;;;;;4970950;28;20470;-67
2022/06/28 08:31:51;;;;;;;2.60;2.50;;;26.10;99.90;;;;;;4971062;28;20488;-68
2022/06/28 08:34:19;;;;;;;3.13;3.03;;;25.80;99.90;;;;;;4971360;28;20472;-67
2022/06/28 08:36:46;;;;;;;2.10;2.10;;;25.30;99.90;;;;;;4971404;28;20851;-67
2022/06/28 08:39:13;;;;;;;1.47;1.47;;;24.60;99.90;;;;;;4970974;28;20491;-67
2022/06/28 08:41:42;;;;;;;2.20;2.10;;;24.70;99.90;;;;;;4971501;28;20488;-67
2022/06/28 08:44:11;;;;;;;1.60;1.60;;;25.00;99.90;;;;;;4974193;28;20551;-67
2022/06/28 08:46:38;;;;;;;1.10;1.10;;;25.60;99.90;;;;;;4974809;28;20906;-67
2022/06/28 08:49:11;;;;;;;2.00;1.90;;;26.00;99.60;;;;;;4974146;28;20473;-67
2022/06/28 08:51:40;;;;;;;2.00;1.90;;;26.40;99.80;;;;;;4974062;28;20497;-67
2022/06/28 08:54:08;;;;;;;1.40;1.40;;;26.30;97.50;;;;;;4973790;28;20569;-67
2022/06/28 08:56:38;;;;;;;1.77;1.67;;;26.20;98.10;;;;;;4974456;28;20959;-67
2022/06/28 08:59:07;;;;;;;1.60;1.50;;;26.40;98.30;;;;;;4973640;28;20585;-67
2022/06/28 09:01:34;;;;;;;1.60;1.60;;;26.60;97.40;;;;;;4973898;28;20533;-67
2022/06/28 09:04:03;;;;;;;1.33;1.30;;;26.50;96.50;;;;;;4973775;28;20499;-67
2022/06/28 09:06:30;;;;;;;1.33;1.33;;;25.60;95.20;;;;;;4974554;28;20834;-67
2022/06/28 09:08:58;;;;;;;0.93;0.93;;;24.80;95.90;;;;;;4973798;28;20464;-67
2022/06/28 09:11:24;;;;;;;1.47;1.37;;;24.50;96.00;;;;;;4973441;28;20858;-67
2022/06/28 09:13:51;;;;;;;1.23;1.13;;;24.60;96.40;;;;;;4954182;28;20472;-67
2022/06/28 09:16:20;;;;;;;1.20;1.10;;;24.90;95.70;;;;;;4970860;28;20825;-67
2022/06/28 09:18:48;;;;;;;1.40;1.40;;;24.90;96.00;;;;;;4973762;28;20495;-67
2022/06/28 09:21:16;;;;;;;1.53;1.43;;;25.10;95.30;;;;;;4973744;28;20491;-66
2022/06/28 09:23:45;;;;;;;1.17;1.17;;;25.10;95.20;;;;;;4973527;28;20462;-67
2022/06/28 09:26:15;;;;;;;1.23;1.13;;;25.30;95.00;;;;;;4974072;28;20471;-66
2022/06/28 09:28:45;;;;;;;1.40;1.30;;;25.50;94.40;;;;;;4973951;28;20580;-66
2022/06/28 09:31:17;;;;;;;1.10;1.10;;;25.30;93.70;;;;;;4973206;28;20489;-66
2022/06/28 09:33:47;;;;;;;1.30;1.30;;;25.30;94.80;;;;;;4973994;28;20468;-66
2022/06/28 09:36:16;;;;;;;1.60;1.60;;;25.40;94.30;;;;;;4973529;28;20472;-67
2022/06/28 09:38:43;;;;;;;1.73;1.63;;;25.20;95.00;;;;;;4973011;28;20494;-67
2022/06/28 09:41:21;;;;;;;3.80;1.50;;;25.10;95.00;;;;;;4973212;28;20483;-67
2022/06/28 09:43:55;;;;;;;2.20;1.40;;;25.20;94.90;;;;;;4974973;28;20526;-68
2022/06/28 09:46:26;;;;;;;2.03;2.03;;;24.90;95.00;;;;;;4977595;28;20514;-68
2022/06/28 09:48:56;;;;;;;1.67;1.67;;;24.40;96.30;;;;;;4973787;28;20473;-69
2022/06/28 09:51:23;;;;;;;1.60;1.60;;;23.90;97.20;;;;;;4970709;28;20495;-67
2022/06/28 09:53:53;;;;;;;1.60;1.50;;;23.90;98.00;;;;;;4972228;28;20459;-67
2022/06/28 09:56:23;;;;;;;1.50;1.50;;;24.20;98.20;;;;;;4973138;28;20975;-68
2022/06/28 09:58:51;;;;;;;2.03;2.03;;;24.20;97.80;;;;;;4972748;28;20841;-68
2022/06/28 10:01:19;;;;;;;2.50;2.40;;;24.40;98.60;;;;;;4973259;28;20510;-67
2022/06/28 10:03:46;;;;;;;1.87;1.87;;;23.90;98.50;;;;;;4973797;28;20917;-68
2022/06/28 10:06:13;;;;;;;2.40;1.90;;;23.40;99.80;;;;;;4973152;28;20488;-68
2022/06/28 10:08:42;;;;;;;3.23;1.73;;;23.20;99.70;;;;;;4972390;28;20460;-67
2022/06/28 10:11:10;;;;;;;1.63;1.63;;;23.40;98.90;;;;;;4972518;28;20512;-68
2022/06/28 10:16:11;;;;;;;1.47;1.47;;;23.60;97.90;;;;;;4993021;23;20570;-70
2022/06/28 10:18:41;;;;;;;2.10;1.77;;;23.80;97.50;;;;;;4972923;28;20520;-70
2022/06/28 10:21:08;;;;;;;1.30;1.30;;;23.80;96.80;;;;;;4972553;28;20793;-70
2022/06/28 10:23:37;;;;;;;1.20;1.20;;;23.70;97.10;;;;;;4972244;28;20470;-70
2022/06/28 10:26:07;;;;;;;1.60;1.40;;;23.70;97.20;;;;;;4953619;29;20464;-71
2022/06/28 10:28:39;;;;;;;1.67;1.60;;;24.00;97.00;;;;;;4953382;29;20469;-71
2022/06/28 10:31:39;;;;;;;1.40;1.30;;;24.20;96.70;;;;;;4952737;29;20469;-70
2022/06/28 10:34:12;;;;;;;1.30;1.30;;;24.40;95.50;;;;;;4953030;29;20555;-70
2022/06/28 10:36:59;;;;;;;1.33;1.30;;;24.40;96.00;;;;;;4953354;29;20476;-71
2022/06/28 10:39:29;;;;;;;1.27;1.27;;;24.30;97.00;;;;;;4947852;28;20847;-70
2022/06/28 10:42:07;;;;;;;1.53;1.47;;;24.00;96.90;;;;;;4943592;29;20942;-69
2022/06/28 10:44:45;;;;;;;2.03;2.03;;;23.80;97.80;;;;;;4933423;29;20500;-69
2022/06/28 10:47:15;;;;;;;3.20;1.80;;;23.90;98.40;;;;;;4933980;29;20552;-70
2022/06/28 10:50:06;;;;;;;2.30;1.60;;;24.00;97.60;;;;;;4933745;29;20462;-70
2022/06/28 10:52:34;;;;;;;1.80;1.40;;;24.10;96.80;;;;;;4930743;29;20465;-71
2022/06/28 10:55:20;;;;;;;1.93;1.50;;;24.30;96.40;;;;;;4933499;29;20591;-71
2022/06/28 10:57:47;;;;;;;1.40;1.40;;;24.40;95.40;;;;;;4933771;29;20465;-70
2022/06/28 11:00:24;;;;;;;1.40;1.40;;;24.60;95.60;;;;;;4933000;29;20473;-70
2022/06/28 11:03:03;;;;;;;1.93;1.83;;;24.70;94.50;;;;;;4933684;29;20465;-71
2022/06/28 11:05:47;;;;;;;1.57;1.50;;;24.90;94.50;;;;;;4932815;29;20504;-70
2022/06/28 11:08:32;;;;;;;1.60;1.60;;;25.00;95.10;;;;;;4933247;29;20470;-72
2022/06/28 11:11:03;;;;;;;1.80;1.60;;;25.10;94.60;;;;;;4930474;29;20473;-71
2022/06/28 11:13:30;;;;;;;1.83;1.63;;;25.30;93.90;;;;;;4933471;29;20484;-69
2022/06/28 11:15:57;;;;;;;3.60;1.50;;;25.50;94.70;;;;;;4932746;29;20493;-69
2022/06/28 11:18:25;;;;;;;1.73;1.73;;;25.50;94.70;;;;;;4933316;29;20493;-71
2022/06/28 11:20:52;;;;;;;2.17;2.10;;;25.60;94.80;;;;;;4932945;29;20473;-70
2022/06/28 11:23:27;;;;;;;1.90;1.80;;;25.60;95.20;;;;;;4933252;29;20470;-71
2022/06/28 11:28:55;;;;;;;1.70;1.70;;;25.60;94.20;;;;;;4933437;29;20449;-71
2022/06/28 11:31:22;;;;;;;1.83;1.73;;;25.50;94.10;;;;;;4933043;29;20823;-69
2022/06/28 11:33:50;;;;;;;2.80;2.27;;;25.30;94.40;;;;;;4932916;29;20890;-70
2022/06/28 11:36:33;;;;;;;1.53;1.53;;;25.50;93.50;;;;;;4933416;29;20496;-70
2022/06/28 11:39:04;;;;;;;2.10;2.10;;;25.70;92.70;;;;;;4932666;29;20520;-70
2022/06/28 11:41:32;;;;;;;1.80;1.80;;;26.00;91.60;;;;;;4932976;29;20842;-70
2022/06/28 11:43:59;;;;;;;1.60;1.60;;;26.20;90.90;;;;;;4933557;29;20846;-69
2022/06/28 11:46:27;;;;;;;2.00;2.00;;;26.40;90.20;;;;;;4933018;29;20519;-70
2022/06/28 11:48:56;;;;;;;2.10;2.10;;;26.40;90.50;;;;;;4933209;29;20467;-71
2022/06/28 11:51:28;;;;;;;3.37;2.73;;;26.40;90.10;;;;;;4932790;29;20951;-70
2022/06/28 11:53:55;;;;;;;1.70;1.70;;;26.30;90.00;;;;;;4932293;29;20846;-70
2022/06/28 11:56:21;;;;;;;2.50;1.70;;;26.30;90.10;;;;;;4933022;29;20482;-71
2022/06/28 11:58:48;;;;;;;2.03;1.93;;;26.30;88.60;;;;;;4932644;29;20499;-70
2022/06/28 12:01:16;;;;;;;1.70;1.60;;;26.30;87.40;;;;;;4932340;29;20572;-70
2022/06/28 12:03:59;;;;;;;1.70;1.70;;;26.20;88.20;;;;;;4935899;28;20470;-70
2022/06/28 12:06:28;;;;;;;1.70;1.60;;;26.10;88.90;;;;;;4951983;29;20468;-71
2022/06/28 12:08:57;;;;;;;1.80;1.80;;;26.10;86.90;;;;;;4951160;29;20510;-70
2022/06/28 12:11:33;;;;;;;1.50;1.50;;;26.10;87.20;;;;;;4951401;29;20472;-69
2022/06/28 12:14:01;;;;;;;1.40;1.40;;;26.10;86.60;;;;;;4951230;28;20519;-69
2022/06/28 12:16:31;;;;;;;2.10;2.10;;;25.90;87.40;;;;;;4952886;28;20472;-70
2022/06/28 12:19:00;;;;;;;2.40;2.40;;;25.80;89.80;;;;;;4955469;29;20570;-70
2022/06/28 12:21:28;;;;;;;4.43;2.43;;;25.60;91.70;;;;;;4955474;28;20829;-70
2022/06/28 12:23:56;;;;;;;4.93;2.20;;;25.40;92.50;;;;;;4954459;28;20469;-70
2022/06/28 12:26:39;;;;;;;2.93;2.93;;;25.30;92.80;;;;;;4955601;29;20469;-70
2022/06/28 12:29:06;;;;;;;3.07;2.87;;;25.60;92.40;;;;;;4954675;29;20578;-70
2022/06/28 12:31:33;;;;;;;2.83;2.80;;;25.60;92.30;;;;;;4954993;29;20976;-70
2022/06/28 12:34:05;;;;;;;2.63;2.53;;;25.50;92.20;;;;;;4955085;28;20504;-70
2022/06/28 12:36:32;;;;;;;2.30;2.20;;;25.40;92.80;;;;;;4955176;29;20792;-70
2022/06/28 12:38:58;;;;;;;3.37;2.70;;;25.30;92.50;;;;;;4954676;29;20508;-71
2022/06/28 12:41:25;;;;;;;3.20;2.37;;;25.50;92.60;;;;;;4950807;29;20468;-70
2022/06/28 12:43:52;;;;;;;2.40;2.30;;;25.50;91.10;;;;;;4954612;28;20461;-70
2022/06/28 12:46:18;;;;;;;2.13;2.13;;;25.30;91.70;;;;;;4955113;29;20898;-70
2022/06/28 12:48:45;;;;;;;2.83;2.83;;;25.30;91.50;;;;;;4955388;29;20461;-70
2022/06/28 12:51:14;;;;;;;2.40;2.30;;;25.30;91.60;;;;;;4954578;29;20469;-70
2022/06/28 12:53:40;;;;;;;2.53;2.43;;;25.20;91.50;;;;;;4954364;28;20475;-70
2022/06/28 12:56:07;;;;;;;2.70;2.60;;;25.10;91.70;;;;;;4954862;29;20992;-71
2022/06/28 12:58:34;;;;;;;2.60;2.60;;;25.30;92.20;;;;;;4954666;29;20488;-71
2022/06/28 13:01:01;;;;;;;2.03;1.93;;;25.50;91.60;;;;;;4954050;29;20464;-70
2022/06/28 13:03:27;;;;;;;1.90;1.90;;;25.70;90.60;;;;;;4954586;29;20511;-70
2022/06/28 13:05:54;;;;;;;2.00;2.00;;;26.00;89.50;;;;;;4954808;28;20855;-69
2022/06/28 13:08:22;;;;;;;1.60;1.60;;;26.10;88.80;;;;;;4954059;29;20946;-70
2022/06/28 13:10:49;;;;;;;2.43;1.97;;;26.30;88.90;;;;;;4954364;29;20465;-69
2022/06/28 13:13:19;;;;;;;2.20;2.10;;;26.40;87.30;;;;;;4954588;29;20490;-70
2022/06/28 13:15:47;;;;;;;2.10;2.00;;;26.40;85.30;;;;;;4954123;28;20922;-70
2022/06/28 13:18:14;;;;;;;1.83;1.73;;;26.40;85.20;;;;;;4954106;29;20468;-70
2022/06/28 13:20:41;;;;;;;2.17;2.13;;;26.10;87.90;;;;;;4954377;29;20497;-70
2022/06/28 13:23:08;;;;;;;2.40;2.30;;;26.00;87.40;;;;;;4953676;29;20946;-70
2022/06/28 13:25:37;;;;;;;2.10;2.00;;;25.90;87.70;;;;;;4954550;28;20484;-71
2022/06/28 13:28:04;;;;;;;3.43;1.80;;;25.80;88.20;;;;;;4954565;28;20556;-71
2022/06/28 13:30:31;;;;;;;1.77;1.77;;;25.90;87.10;;;;;;4951344;29;20476;-71
2022/06/28 13:32:58;;;;;;;1.80;1.80;;;26.00;86.10;;;;;;4954261;29;20889;-71
2022/06/28 13:35:25;;;;;;;1.50;1.50;;;26.20;85.10;;;;;;4954554;28;20493;-71
2022/06/28 13:37:51;;;;;;;1.50;1.50;;;26.40;84.90;;;;;;4954022;29;20848;-69
2022/06/28 13:40:18;;;;;;;2.00;1.90;;;26.60;83.70;;;;;;4953974;29;20500;-69
2022/06/28 13:42:47;;;;;;;2.63;2.57;;;26.60;81.80;;;;;;4954293;29;20504;-70
2022/06/28 13:45:14;;;;;;;1.60;1.50;;;26.40;82.80;;;;;;4953919;28;20582;-69
2022/06/28 13:47:42;;;;;;;1.87;1.77;;;26.40;83.80;;;;;;4954302;29;20888;-70
2022/06/28 13:50:10;;;;;;;1.40;1.40;;;26.40;82.70;;;;;;4954250;29;20464;-71
2022/06/28 13:52:37;;;;;;;1.90;1.80;;;26.30;83.50;;;;;;4954031;29;20484;-70
2022/06/28 13:55:05;;;;;;;3.00;2.73;;;26.50;85.30;;;;;;4954007;28;20492;-70
2022/06/28 13:57:32;;;;;;;2.23;2.10;;;26.60;85.60;;;;;;4954216;29;20468;-70
2022/06/28 14:00:00;;;;;;;2.30;2.20;;;26.60;84.50;;;;;;4953276;29;20496;-70
2022/06/28 14:02:27;;;;;;;1.97;1.87;;;26.50;85.20;;;;;;4949418;29;20469;-70
2022/06/28 14:04:53;;;;;;;1.90;1.90;;;26.30;83.40;;;;;;4935762;29;20485;-71
2022/06/28 14:07:20;;;;;;;1.90;1.80;;;26.40;83.10;;;;;;4934508;29;20465;-70
2022/06/28 14:09:47;;;;;;;1.90;1.83;;;26.60;83.50;;;;;;4933801;29;20461;-71
2022/06/28 14:12:13;;;;;;;1.73;1.70;;;26.70;81.90;;;;;;4934433;29;20485;-70
2022/06/28 14:14:40;;;;;;;2.40;2.30;;;26.50;82.60;;;;;;4935964;29;20817;-70
2022/06/28 14:17:08;;;;;;;1.80;1.80;;;26.50;83.10;;;;;;4938721;29;20472;-71
2022/06/28 14:19:35;;;;;;;1.90;1.90;;;26.60;82.90;;;;;;4939616;29;20808;-69
2022/06/28 14:22:02;;;;;;;2.70;1.70;;;26.80;81.80;;;;;;4942373;29;20984;-71
2022/06/28 14:24:29;;;;;;;1.90;1.80;;;26.90;82.20;;;;;;4936322;29;21026;-71
2022/06/28 14:26:55;;;;;;;1.43;1.43;;;27.10;81.70;;;;;;4935579;29;20946;-71
2022/06/28 14:29:24;;;;;;;1.37;1.37;;;27.10;79.60;;;;;;4934470;29;20466;-71
2022/06/28 14:31:51;;;;;;;1.80;1.73;;;27.20;81.50;;;;;;4934608;29;20465;-71
2022/06/28 14:34:19;;;;;;;1.90;1.80;;;27.20;81.20;;;;;;4934447;29;20504;-70
2022/06/28 14:36:46;;;;;;;1.90;1.80;;;27.30;80.40;;;;;;4934272;29;20496;-69
2022/06/28 14:39:13;;;;;;;1.80;1.70;;;27.20;79.50;;;;;;4933511;29;20482;-69
2022/06/28 14:41:40;;;;;;;1.90;1.90;;;27.20;80.00;;;;;;4933890;29;20484;-70
2022/06/28 14:44:07;;;;;;;1.53;1.53;;;27.30;80.00;;;;;;4933675;29;20835;-70
2022/06/28 14:46:34;;;;;;;1.50;1.50;;;27.40;77.30;;;;;;4934283;29;20471;-70
2022/06/28 14:49:01;;;;;;;1.50;1.50;;;27.30;77.30;;;;;;4934039;29;20465;-71
2022/06/28 14:51:30;;;;;;;1.40;1.40;;;27.40;76.10;;;;;;4941605;29;20527;-70
2022/06/28 14:53:56;;;;;;;1.20;1.20;;;27.50;75.10;;;;;;4932887;29;20466;-70
2022/06/28 14:56:23;;;;;;;1.57;1.57;;;27.40;76.20;;;;;;4934315;29;20481;-70
2022/06/28 14:58:50;;;;;;;1.50;1.50;;;27.50;74.60;;;;;;4933574;29;20490;-69
2022/06/28 15:01:16;;;;;;;1.23;1.23;;;27.50;73.80;;;;;;4933766;29;20500;-70
2022/06/28 15:03:43;;;;;;;1.83;1.73;;;27.40;74.80;;;;;;4934039;29;20474;-70
2022/06/28 15:06:10;;;;;;;1.70;1.60;;;27.50;76.20;;;;;;4933605;29;20472;-70
2022/06/28 15:08:38;;;;;;;1.60;1.60;;;27.50;76.30;;;;;;4933174;29;20476;-70
2022/06/28 15:11:05;;;;;;;1.60;1.50;;;27.50;76.10;;;;;;4933569;29;20791;-70
2022/06/28 15:13:31;;;;;;;1.47;1.40;;;27.50;74.20;;;;;;4933885;29;20469;-69
2022/06/28 15:15:58;;;;;;;1.50;1.50;;;27.70;74.60;;;;;;4933050;29;20493;-71
2022/06/28 15:18:25;;;;;;;1.67;1.60;;;27.60;75.10;;;;;;4933519;29;20465;-71
2022/06/28 15:20:53;;;;;;;1.53;1.53;;;27.70;75.00;;;;;;4933282;29;20627;-70
2022/06/28 15:31:34;;;;;;;1.40;1.40;;;28.20;73.70;;;;;;4951178;29;20495;-70
2022/06/28 15:34:01;;;;;;;1.93;1.63;;;28.40;73.10;;;;;;4952820;28;20485;-72
2022/06/28 15:36:28;;;;;;;1.93;1.80;;;28.40;73.40;;;;;;4952571;29;20471;-71
2022/06/28 15:38:55;;;;;;;1.60;1.60;;;28.30;73.20;;;;;;4952398;29;20564;-70
2022/06/28 15:41:23;;;;;;;1.50;1.50;;;28.40;72.70;;;;;;4952017;29;21042;-70
2022/06/28 15:43:50;;;;;;;1.60;1.57;;;28.10;72.50;;;;;;4951884;28;20469;-70
2022/06/28 15:46:16;;;;;;;2.00;1.40;;;28.00;72.60;;;;;;4952244;29;20477;-70
2022/06/28 15:48:43;;;;;;;1.47;1.37;;;28.10;71.60;;;;;;4952538;29;20480;-70
2022/06/28 15:51:10;;;;;;;2.10;1.30;;;28.10;71.30;;;;;;4952484;28;20468;-70
2022/06/28 15:53:38;;;;;;;1.50;1.50;;;27.90;71.20;;;;;;4955755;29;20476;-70
2022/06/28 15:56:05;;;;;;;1.70;1.60;;;27.70;70.90;;;;;;4956140;29;20504;-69
2022/06/28 15:58:33;;;;;;;1.10;1.10;;;27.00;72.50;;;;;;4956255;28;20494;-70
2022/06/28 16:00:59;;;;;;;1.40;1.40;;;26.90;74.30;;;;;;4955570;29;20499;-69
2022/06/28 16:03:26;;;;;;;1.13;1.13;;;27.10;74.50;;;;;;4955698;29;20472;-70
2022/06/28 16:05:53;;;;;;;1.63;1.60;;;27.30;73.80;;;;;;4956032;28;20507;-69
2022/06/28 16:08:19;;;;;;;1.67;1.67;;;27.60;73.20;;;;;;4955543;29;20491;-69
2022/06/28 16:10:46;;;;;;;1.43;1.43;;;27.70;72.00;;;;;;4955507;29;20468;-70
2022/06/28 16:13:13;;;;;;;1.43;1.43;;;27.80;70.90;;;;;;4955717;29;20906;-69
2022/06/28 16:15:41;;;;;;;1.30;1.30;;;27.80;69.90;;;;;;4959810;23;1095322;-67
2022/06/28 16:18:10;;;;;;;1.20;1.20;;;27.80;70.20;;;;;;4982909;28;20204;-67
2022/06/28 16:20:38;;;;;;;1.43;1.43;;;27.90;70.80;;;;;;4960517;28;20547;-68
2022/06/28 16:23:06;;;;;;;1.40;1.40;;;27.90;70.80;;;;;;4970786;28;21003;-68
2022/06/28 16:25:33;;;;;;;1.30;1.30;;;27.80;70.30;;;;;;4974877;28;20487;-66
2022/06/28 16:28:00;;;;;;;3.80;2.10;;;27.80;69.10;;;;;;4974924;28;20490;-66
2022/06/28 16:30:27;;;;;;;1.80;1.80;;;27.70;69.60;;;;;;4974414;28;20467;-68
2022/06/28 16:32:55;;;;;;;1.37;1.37;;;27.40;71.80;;;;;;4974701;28;20472;-68
2022/06/28 16:35:23;;;;;;;1.33;1.33;;;27.30;72.00;;;;;;4974705;28;20493;-68
2022/06/28 16:37:51;;;;;;;1.80;1.70;;;27.30;72.70;;;;;;4974123;28;20470;-68
2022/06/28 16:40:23;;;;;;;1.50;1.50;;;27.30;71.80;;;;;;4974144;28;20494;-68
2022/06/28 16:42:49;;;;;;;10.00;2.10;;;27.10;72.30;;;;;;4974832;28;20467;-68
2022/06/28 16:45:17;;;;;;;2.27;1.70;;;27.00;73.10;;;;;;4974411;28;20487;-68
2022/06/28 16:47:45;;;;;;;1.30;1.30;;;26.90;73.50;;;;;;4974356;28;20467;-68
2022/06/28 16:50:16;;;;;;;1.50;1.50;;;26.90;73.00;;;;;;4973283;28;20550;-68
2022/06/28 16:52:43;;;;;;;1.50;1.50;;;26.70;72.30;;;;;;4973514;28;20514;-68
2022/06/28 16:55:11;;;;;;;1.40;1.40;;;26.60;72.70;;;;;;4975433;28;20542;-68
2022/06/28 16:57:39;;;;;;;1.70;1.70;;;26.30;73.60;;;;;;4974573;28;20518;-68
2022/06/28 17:00:09;;;;;;;1.37;1.37;;;26.10;73.70;;;;;;4973659;28;20523;-68
2022/06/28 17:02:36;;;;;;;2.57;2.37;;;26.10;75.00;;;;;;4973422;28;20470;-68
2022/06/28 17:05:02;;;;;;;1.80;1.80;;;26.10;74.70;;;;;;4973602;28;20483;-67
2022/06/28 17:07:30;;;;;;;3.33;2.50;;;26.20;74.20;;;;;;4975086;28;20479;-68